This is the latest recevied weather packets stored in our database for station/object KC4LZN. If no packets are shown the sender has not sent any weather packets the latest 10 day(s).
| Time | Temp. | Humidity | Pressure | Rain* | Wind** | Luminosity | Snow |
|---|---|---|---|---|---|---|---|
| 1777750488 | 20.56° C | 92% | 1012.1 hPa | 1.27 mm | - | 62 W/m² | - |
| 1777750184 | 21.11° C | 92% | 1012.1 hPa | 0 mm | - | 63 W/m² | - |
| 1777749881 | 21.11° C | 91% | 1012.1 hPa | 0 mm | - | 72 W/m² | - |
| 1777749577 | 21.11° C | 91% | 1012 hPa | 0 mm | - | 62 W/m² | - |
| 1777749275 | 21.11° C | 90% | 1012.4 hPa | 0 mm | - | 81 W/m² | - |
| 1777748973 | 20.56° C | 92% | 1012.5 hPa | 1.78 mm | - | 88 W/m² | - |
| 1777748670 | 20.56° C | 93% | 1012.9 hPa | 4.83 mm | - | 67 W/m² | - |
| 1777748366 | 20.56° C | 94% | 1013.1 hPa | 6.1 mm | - | 43 W/m² | - |
| 1777748061 | 20.56° C | 94% | 1012.9 hPa | 8.89 mm | - | 41 W/m² | - |
| 1777747759 | 20.56° C | 93% | 1013.1 hPa | 10.67 mm | - | 21 W/m² | - |
| 1777747454 | 21.67° C | 88% | 1013.4 hPa | 4.83 mm | - | 12 W/m² | - |
| 1777747151 | 23.89° C | 75% | 1012.7 hPa | 0 mm | - | 27 W/m² | - |
| 1777746847 | 25° C | 71% | 1012.6 hPa | 0 mm | - | 17 W/m² | - |
| 1777746542 | 28.89° C | 64% | 1012.2 hPa | 0 mm | - | 5 W/m² | - |
| 1777746238 | 28.89° C | 64% | 1011.5 hPa | 0 mm | - | 52 W/m² | - |
| 1777745934 | 28.89° C | 63% | 1011.4 hPa | 0 mm | - | 58 W/m² | - |
| 1777745633 | 29.44° C | 63% | 1011.4 hPa | 0 mm | - | 60 W/m² | - |
| 1777745331 | 29.44° C | 64% | 1011.6 hPa | 0 mm | - | 75 W/m² | - |
| 1777745028 | 29.44° C | 63% | 1011.3 hPa | 0 mm | - | 93 W/m² | - |
| 1777744724 | 29.44° C | 62% | 1011.2 hPa | 0 mm | - | 127 W/m² | - |
| 1777744417 | 30° C | 61% | 1011.2 hPa | 0 mm | - | 156 W/m² | - |
| 1777744116 | 30° C | 62% | 1011.3 hPa | 0 mm | - | 238 W/m² | - |
| 1777743812 | 30° C | 62% | 1011.2 hPa | 0 mm | - | 196 W/m² | - |
| 1777743509 | 30° C | 64% | 1011.2 hPa | 0 mm | - | 294 W/m² | - |
| 1777743206 | 30° C | 65% | 1011.1 hPa | 0 mm | - | 403 W/m² | - |
* Rain latest hour (hover to see other rain measurements)
** Current wind speed in m/s (hover to see current wind gust speed)